createdAt,value
2018-09-24T08:52:22.851Z,96952.16
2018-09-24T08:54:56.587Z,96953.82
2018-09-24T08:57:30.307Z,96956.94
2018-09-24T09:00:20.664Z,96967.34
2018-09-24T09:02:54.584Z,96973.13
2018-09-24T09:06:12.839Z,96974.06
2018-09-24T09:08:46.410Z,96982.47
2018-09-24T09:11:20.112Z,96978.72
2018-09-24T09:13:53.889Z,96974.70
2018-09-24T09:16:27.812Z,96972.56
2018-09-24T09:19:01.583Z,96976.99
2018-09-24T09:21:35.251Z,96975.86
2018-09-24T09:24:09.092Z,96991.95
2018-09-24T09:26:42.760Z,96992.35
2018-09-24T09:29:16.512Z,96990.28
2018-09-24T09:31:50.271Z,96986.98
2018-09-24T09:34:24.179Z,96989.95
2018-09-24T09:36:58.027Z,96995.33
2018-09-24T09:39:31.692Z,96988.16
2018-09-24T09:42:05.415Z,96995.59
2018-09-24T09:44:39.189Z,96991.24
2018-09-24T09:47:13.149Z,96997.14
2018-09-24T09:49:46.972Z,96999.02
2018-09-24T09:52:20.751Z,96996.92
2018-09-24T09:54:54.416Z,96997.25
2018-09-24T09:57:28.220Z,96991.41
2018-09-24T10:00:01.883Z,97001.56
2018-09-24T10:02:35.736Z,97001.56
2018-09-24T10:05:10.548Z,96993.37
2018-09-24T10:07:44.136Z,96997.43
2018-09-24T10:10:17.840Z,97002.63
2018-09-24T10:12:51.600Z,96999.95
2018-09-24T10:15:25.584Z,97011.34
2018-09-24T10:17:59.242Z,97005.47
2018-09-24T10:20:32.916Z,97007.11
2018-09-24T10:23:06.536Z,97006.91
2018-09-24T10:25:40.401Z,96999.70
2018-09-24T10:28:14.243Z,97004.55
2018-09-24T10:30:48.027Z,97000.70
2018-09-24T10:33:21.816Z,97015.06
2018-09-24T10:35:55.670Z,97011.44
2018-09-24T10:38:29.360Z,97000.83
2018-09-24T10:41:06.300Z,97008.15
2018-09-24T10:43:40.083Z,97002.00
2018-09-24T10:46:14.356Z,97010.55
2018-09-24T10:48:48.187Z,97006.52
2018-09-24T10:51:21.967Z,97009.84
2018-09-24T10:54:08.176Z,97010.14
2018-09-24T10:56:41.904Z,96996.27
2018-09-24T10:59:15.671Z,96998.44
2018-09-24T11:01:49.486Z,96993.38
2018-09-24T11:04:23.229Z,97011.47
2018-09-24T11:06:57.064Z,97009.35
2018-09-24T11:09:30.698Z,97010.64
2018-09-24T11:12:04.464Z,97016.16
2018-09-24T11:14:38.099Z,97019.64
2018-09-24T11:17:19.819Z,97017.22
2018-09-24T11:20:00.050Z,97008.75
2018-09-24T11:22:48.011Z,97006.02
2018-09-24T11:25:28.136Z,97007.30
2018-09-24T11:28:08.997Z,97008.98
2018-09-24T11:30:52.948Z,97011.36
2018-09-24T11:33:32.771Z,97010.30
2018-09-24T11:36:12.915Z,97008.64
2018-09-24T11:38:52.201Z,97019.95
2018-09-24T11:41:32.011Z,97017.38
2018-09-24T11:44:05.865Z,97021.25
2018-09-24T11:46:39.864Z,97024.52
2018-09-24T11:49:13.616Z,97026.95
2018-09-24T11:51:47.307Z,97022.66
2018-09-24T11:54:21.129Z,97014.57
2018-09-24T11:56:54.760Z,97022.16
2018-09-24T11:59:28.761Z,97029.45
2018-09-24T12:02:02.523Z,97028.15
2018-09-24T12:04:36.355Z,97034.00
2018-09-24T12:07:10.475Z,97029.77
2018-09-24T12:09:44.231Z,97022.50
2018-09-24T12:12:18.508Z,97046.48
2018-09-24T12:14:52.175Z,97038.38
2018-09-24T12:17:25.785Z,97027.23
2018-09-24T12:19:59.489Z,97036.37
2018-09-24T12:22:33.163Z,97033.88
2018-09-24T12:25:06.876Z,97042.03
2018-09-24T12:27:40.732Z,97041.83
2018-09-24T12:30:14.604Z,97034.72
2018-09-24T12:32:48.385Z,97043.18
2018-09-24T12:35:22.227Z,97049.76
2018-09-24T12:37:55.916Z,97038.55
2018-09-24T12:40:29.548Z,97042.43
2018-09-24T12:43:03.174Z,97045.19
2018-09-24T12:45:36.978Z,97059.34
2018-09-24T12:48:10.656Z,97040.08
2018-09-24T12:50:44.361Z,97038.70
2018-09-24T12:53:18.174Z,97037.53
2018-09-24T12:55:51.748Z,97053.58
2018-09-24T12:58:25.477Z,97045.52
2018-09-24T13:00:59.225Z,97052.78
2018-09-24T13:03:32.801Z,97051.61
2018-09-24T13:06:06.652Z,97053.25
2018-09-24T13:17:25.248Z,97035.20
2018-09-24T13:19:58.993Z,97048.31
2018-09-24T13:22:32.900Z,97057.06
2018-09-24T13:25:06.603Z,97053.92
2018-09-24T13:27:40.280Z,97067.66
2018-09-24T13:30:14.135Z,97107.79
2018-09-24T13:32:47.933Z,97085.08
2018-09-24T13:35:21.719Z,97081.60
2018-09-24T13:37:55.540Z,97074.72
2018-09-24T13:40:29.280Z,97074.86
2018-09-24T13:43:03.110Z,97067.67
2018-09-24T13:45:36.818Z,97065.47
2018-09-24T13:48:10.808Z,97057.63
2018-09-24T13:50:44.695Z,97051.95
2018-09-24T13:53:18.382Z,97061.67
2018-09-24T13:55:52.042Z,97054.19
2018-09-24T13:58:25.639Z,97057.78
2018-09-24T14:00:59.674Z,97049.16
2018-09-24T14:03:33.333Z,97060.38
2018-09-24T14:06:07.002Z,97052.67
2018-09-24T14:08:40.866Z,97064.48
2018-09-24T14:11:14.737Z,97059.64
2018-09-24T14:13:48.442Z,97060.92
2018-09-24T14:16:22.257Z,97077.29
2018-09-24T14:18:56.060Z,97064.03
2018-09-24T14:21:29.708Z,97065.87
2018-09-24T14:24:04.122Z,97074.61
2018-09-24T14:26:38.356Z,97076.27
2018-09-24T14:29:12.756Z,97103.58
2018-09-24T14:31:47.095Z,97108.60
2018-09-24T14:34:20.723Z,97108.34
2018-09-24T14:36:54.524Z,97100.84
2018-09-24T14:39:28.246Z,97101.80
2018-09-24T14:42:02.103Z,97101.73
2018-09-24T14:44:35.706Z,97111.17
2018-09-24T14:47:09.486Z,97109.44
2018-09-24T14:49:43.251Z,97120.22
2018-09-24T14:52:17.112Z,97124.41
2018-09-24T14:54:50.872Z,97131.50
2018-09-24T14:57:24.941Z,97141.84
2018-09-24T14:59:58.774Z,97138.20
2018-09-24T15:02:32.478Z,97131.16
2018-09-24T15:05:06.336Z,97138.83
2018-09-24T15:07:40.062Z,97133.48
2018-09-24T15:10:13.783Z,97133.34
2018-09-24T15:12:47.433Z,97127.36
2018-09-24T15:15:21.011Z,97122.81
2018-09-24T15:17:54.859Z,97133.16
2018-09-24T15:20:28.723Z,97124.32
2018-09-24T15:23:02.395Z,97129.06
2018-09-24T15:25:36.272Z,97126.13
2018-09-24T15:28:10.112Z,97131.14
2018-09-24T15:30:44.521Z,97126.91
2018-09-24T15:33:18.242Z,97123.98
2018-09-24T15:35:51.851Z,97131.52
2018-09-24T15:38:25.552Z,97130.45
2018-09-24T15:40:59.204Z,97140.17
2018-09-24T15:43:32.845Z,97145.39
2018-09-24T15:46:06.705Z,97140.63
2018-09-24T15:48:40.435Z,97144.08
2018-09-24T15:51:14.278Z,97150.62
2018-09-24T15:53:48.161Z,97151.72
2018-09-24T15:56:21.920Z,97152.67
2018-09-24T15:58:55.675Z,97161.71
2018-09-24T16:01:29.351Z,97162.23
2018-09-24T16:04:03.041Z,97160.95
2018-09-24T16:06:36.780Z,97168.94
2018-09-24T16:09:13.564Z,97170.22
2018-09-24T16:11:47.429Z,97175.16
2018-09-24T16:14:21.423Z,97183.38
2018-09-24T16:16:55.116Z,97182.98
2018-09-24T16:59:04.921Z,97238.62
2018-09-24T17:01:38.565Z,97240.31
2018-09-24T17:04:12.468Z,97233.28
2018-09-24T17:06:46.164Z,97235.27
2018-09-24T17:09:19.851Z,97239.70
2018-09-24T17:11:53.715Z,97239.05
2018-09-24T17:14:27.309Z,97245.83
2018-09-24T17:17:01.147Z,97238.88
2018-09-24T17:19:35.027Z,97241.86
2018-09-24T17:22:08.777Z,97254.61
2018-09-24T17:24:42.463Z,97255.64
2018-09-24T17:27:16.234Z,97255.01
2018-09-24T17:29:49.927Z,97263.44
2018-09-24T17:32:23.767Z,97260.59
2018-09-24T17:34:57.642Z,97262.52
2018-09-24T17:37:31.430Z,97274.77
2018-09-24T17:40:05.310Z,97275.59
2018-09-24T17:42:38.987Z,97280.09
2018-09-24T17:45:12.738Z,97286.84
2018-09-24T17:47:46.475Z,97289.13
2018-09-24T17:50:20.281Z,97293.39
2018-09-24T17:52:54.143Z,97296.89
2018-09-24T17:55:28.025Z,97301.47
2018-09-24T17:58:01.848Z,97298.80
2018-09-24T18:00:35.636Z,97302.31
2018-09-24T18:03:09.407Z,97296.03
2018-09-24T18:05:43.191Z,97293.91
2018-09-24T18:11:06.983Z,97304.12
2018-09-24T18:13:40.663Z,97297.35
2018-09-24T18:16:14.444Z,97304.88
2018-09-24T18:27:19.040Z,97320.59
2018-09-24T18:29:52.737Z,97325.06
2018-09-24T18:32:26.340Z,97327.27
2018-09-24T18:35:00.013Z,97324.30
2018-09-24T18:37:33.776Z,97322.12
2018-09-24T18:40:07.570Z,97332.69
2018-09-24T18:42:42.802Z,97335.38
2018-09-24T18:45:16.487Z,97336.95
2018-09-24T18:47:50.505Z,97333.47
2018-09-24T18:50:24.646Z,97333.83
2018-09-24T18:52:58.291Z,97336.59
2018-09-24T18:55:31.979Z,97337.56
2018-09-24T18:58:05.585Z,97346.34
2018-09-24T19:00:39.370Z,97347.89
2018-09-24T19:03:13.268Z,97346.08
2018-09-24T19:05:46.988Z,97353.02
2018-09-24T19:08:20.712Z,97351.44
2018-09-24T19:10:54.324Z,97351.53
2018-09-24T19:13:28.257Z,97353.91
2018-09-24T19:16:02.048Z,97349.53
2018-09-24T19:18:35.819Z,97349.36
2018-09-24T19:21:09.741Z,97354.86
2018-09-24T19:23:43.587Z,97356.47
2018-09-24T19:26:17.496Z,97358.25
2018-09-24T19:28:51.324Z,97364.92
2018-09-24T19:31:25.184Z,97357.56
2018-09-24T19:33:58.968Z,97359.85
2018-09-24T19:36:32.724Z,97366.53
2018-09-24T19:39:06.566Z,97364.88
2018-09-24T19:41:40.693Z,97369.70
2018-09-24T19:44:14.765Z,97371.28
2018-09-24T19:46:48.387Z,97364.05
2018-09-24T19:49:22.047Z,97369.17
2018-09-24T19:51:55.712Z,97367.85
2018-09-24T19:54:29.518Z,97379.83
2018-09-24T19:57:03.437Z,97384.08
2018-09-24T19:59:37.480Z,97386.33
2018-09-24T20:02:11.707Z,97391.28
2018-09-24T20:04:45.535Z,97402.83
2018-09-24T20:07:19.065Z,97400.02
2018-09-24T20:09:52.751Z,97401.34
2018-09-24T20:12:26.416Z,97396.08
2018-09-24T20:15:00.156Z,97395.99
2018-09-24T20:17:33.811Z,97401.59
2018-09-24T20:20:07.539Z,97406.78
2018-09-24T20:22:41.253Z,97401.22
2018-09-24T20:25:15.140Z,97398.72
2018-09-24T20:27:49.160Z,97402.20
2018-09-24T20:30:23.100Z,97412.48
2018-09-24T20:32:56.858Z,97406.53
2018-09-24T20:35:30.556Z,97414.77
2018-09-24T20:38:04.202Z,97412.61
2018-09-24T20:40:37.949Z,97410.92
2018-09-24T20:43:11.652Z,97410.84
2018-09-24T20:45:45.420Z,97411.80
2018-09-24T20:48:19.160Z,97411.05
2018-09-24T20:50:52.954Z,97415.48
2018-09-24T20:53:26.645Z,97422.70
2018-09-24T20:56:00.439Z,97435.47
2018-09-24T20:58:34.263Z,97437.64
2018-09-24T21:01:07.944Z,97437.78
2018-09-24T21:03:41.681Z,97448.02
2018-09-24T21:06:15.566Z,97449.84
2018-09-24T21:08:49.208Z,97444.14
2018-09-24T21:11:23.098Z,97453.05
2018-09-24T21:13:57.063Z,97454.45
2018-09-24T21:16:31.473Z,97450.12
2018-09-24T21:19:05.296Z,97444.78
2018-09-24T21:21:38.954Z,97447.95
2018-09-24T21:24:13.277Z,97449.34
2018-09-24T21:26:47.122Z,97446.09
2018-09-24T21:29:20.855Z,97441.39
2018-09-24T21:31:54.572Z,97440.70
2018-09-24T21:34:28.193Z,97438.97
2018-09-24T21:37:01.979Z,97446.06
2018-09-24T21:39:35.580Z,97450.23
2018-09-24T21:42:09.228Z,97448.03
2018-09-24T21:44:43.043Z,97453.67
2018-09-24T21:47:16.786Z,97454.82
2018-09-24T21:49:50.460Z,97454.15
2018-09-24T21:52:24.317Z,97450.34
2018-09-24T21:54:57.975Z,97448.91
2018-09-24T21:57:31.816Z,97443.94
2018-09-24T22:00:05.576Z,97444.62
2018-09-24T22:02:39.448Z,97447.69
2018-09-24T22:05:13.481Z,97448.36
2018-09-24T22:07:47.271Z,97450.33
2018-09-24T22:10:20.960Z,97449.64
2018-09-24T22:12:54.812Z,97446.41
2018-09-24T22:15:28.393Z,97440.10
